Aviation Digital Data Service (ADDS)

Output produced by TAFs form (1350 UTC 21 November 2017)
found at http://www.aviationweather.gov/adds/tafs/
 
KPSF 211120Z 2112/2212 21005KT P6SM SKC WS020/24035KT 
     FM211400 20015G23KT P6SM SKC 
     FM212300 20009KT P6SM SCT200 
     FM220300 20005KT P6SM BKN150 WS020/22035KT